createdAt,value
2022-11-27T00:01:35.888Z,98.30
2022-11-27T00:04:02.952Z,98.30
2022-11-27T00:06:30.443Z,98.20
2022-11-27T00:08:58.943Z,97.80
2022-11-27T00:11:27.311Z,97.50
2022-11-27T00:13:54.233Z,97.20
2022-11-27T00:16:22.778Z,97.30
2022-11-27T00:18:50.241Z,97.70
2022-11-27T00:21:22.324Z,97.60
2022-11-27T00:23:49.701Z,97.30
2022-11-27T00:26:16.415Z,97.40
2022-11-27T00:28:43.820Z,97.20
2022-11-27T00:31:16.882Z,97.60
2022-11-27T00:33:43.920Z,97.60
2022-11-27T00:36:11.713Z,97.40
2022-11-27T00:38:39.364Z,97.60
2022-11-27T00:41:14.674Z,97.70
2022-11-27T00:43:45.579Z,97.80
2022-11-27T00:46:17.710Z,98.10
2022-11-27T00:48:44.517Z,98.10
2022-11-27T00:51:14.078Z,98.00
2022-11-27T00:53:40.922Z,97.40
2022-11-27T00:56:07.981Z,96.90
2022-11-27T00:58:34.668Z,96.60
2022-11-27T01:01:04.226Z,96.90
2022-11-27T01:03:31.438Z,96.60
2022-11-27T01:06:03.776Z,96.80
2022-11-27T01:08:30.419Z,97.40
2022-11-27T01:10:58.383Z,97.40
2022-11-27T01:13:31.374Z,97.50
2022-11-27T01:16:06.982Z,97.00
2022-11-27T01:18:35.741Z,97.00
2022-11-27T01:21:02.920Z,96.90
2022-11-27T01:23:29.667Z,97.20
2022-11-27T01:25:56.411Z,96.70
2022-11-27T01:28:24.004Z,97.10
2022-11-27T01:30:51.108Z,98.00
2022-11-27T01:33:18.624Z,98.20
2022-11-27T01:35:54.769Z,98.00
2022-11-27T01:38:22.423Z,97.90
2022-11-27T01:40:49.748Z,97.60
2022-11-27T01:43:16.796Z,97.30
2022-11-27T01:45:45.463Z,97.10
2022-11-27T01:48:13.288Z,97.00
2022-11-27T01:50:40.632Z,96.90
2022-11-27T01:53:17.625Z,97.00
2022-11-27T01:55:53.024Z,97.60
2022-11-27T01:58:24.079Z,97.20
2022-11-27T02:00:51.529Z,97.50
2022-11-27T02:03:18.619Z,97.60
2022-11-27T02:05:45.353Z,97.50
2022-11-27T02:08:17.342Z,97.20
2022-11-27T02:10:55.004Z,97.00
2022-11-27T02:13:37.351Z,97.00
2022-11-27T02:16:52.875Z,97.10
2022-11-27T02:19:31.870Z,97.50
2022-11-27T02:22:11.663Z,97.80
2022-11-27T02:24:47.278Z,97.30
2022-11-27T02:27:44.681Z,97.80
2022-11-27T02:30:12.475Z,97.70
2022-11-27T02:32:58.825Z,97.70
2022-11-27T02:35:39.112Z,97.90
2022-11-27T02:38:32.642Z,98.30
2022-11-27T02:41:12.410Z,98.20
2022-11-27T02:43:44.964Z,98.30
2022-11-27T02:46:13.380Z,98.20
2022-11-27T02:48:44.785Z,98.20
2022-11-27T02:51:13.684Z,97.90
2022-11-27T02:53:46.485Z,97.80
2022-11-27T02:56:17.444Z,98.30
2022-11-27T02:58:46.584Z,98.30
2022-11-27T03:01:15.959Z,98.30
2022-11-27T03:03:46.349Z,98.30
2022-11-27T03:06:20.754Z,98.30
2022-11-27T03:08:57.421Z,98.30
2022-11-27T03:11:24.721Z,98.30
2022-11-27T03:13:55.288Z,98.30
2022-11-27T03:16:43.515Z,98.30
2022-11-27T03:19:17.195Z,98.30
2022-11-27T03:21:51.888Z,98.30
2022-11-27T03:24:19.179Z,98.30
2022-11-27T03:26:47.419Z,98.30
2022-11-27T03:29:19.599Z,98.30
2022-11-27T03:31:46.467Z,98.30
2022-11-27T03:34:14.020Z,98.30
2022-11-27T03:36:40.733Z,98.30
2022-11-27T03:39:07.680Z,98.30
2022-11-27T03:41:49.527Z,98.30
2022-11-27T03:44:31.255Z,98.30
2022-11-27T03:47:06.982Z,98.20
2022-11-27T03:49:42.934Z,98.30
2022-11-27T03:52:45.872Z,98.30
2022-11-27T03:55:25.119Z,98.30
2022-11-27T03:58:00.635Z,98.30
2022-11-27T04:00:31.551Z,98.30
2022-11-27T04:02:58.276Z,98.30
2022-11-27T04:05:25.163Z,98.30
2022-11-27T04:07:51.953Z,98.30
2022-11-27T04:10:18.820Z,98.30
2022-11-27T04:12:45.471Z,98.30
2022-11-27T04:15:12.883Z,98.30
2022-11-27T04:17:39.597Z,98.30
2022-11-27T04:20:07.380Z,98.30
2022-11-27T04:22:34.084Z,98.30
2022-11-27T04:25:00.748Z,98.30
2022-11-27T04:27:27.407Z,98.30
2022-11-27T04:29:54.059Z,98.30
2022-11-27T04:32:20.717Z,98.30
2022-11-27T04:34:47.387Z,98.30
2022-11-27T04:37:14.039Z,98.30
2022-11-27T04:39:40.764Z,98.30
2022-11-27T04:42:07.451Z,98.30
2022-11-27T04:44:34.146Z,98.30
2022-11-27T04:47:00.931Z,98.30
2022-11-27T04:49:27.690Z,98.30
2022-11-27T04:51:54.354Z,98.30
2022-11-27T04:54:21.087Z,98.30
2022-11-27T04:56:47.736Z,98.30
2022-11-27T04:59:14.395Z,98.30
2022-11-27T05:01:41.208Z,98.30
2022-11-27T05:04:07.896Z,98.30
2022-11-27T05:06:34.540Z,98.30
2022-11-27T05:09:02.145Z,98.30
2022-11-27T05:11:30.807Z,98.30
2022-11-27T05:14:16.974Z,98.30
2022-11-27T05:16:53.109Z,98.30
2022-11-27T05:19:21.628Z,98.30
2022-11-27T05:21:49.611Z,98.30
2022-11-27T05:24:17.595Z,98.30
2022-11-27T05:26:44.327Z,98.30
2022-11-27T05:29:12.232Z,98.30
2022-11-27T05:31:39.577Z,98.30
2022-11-27T05:34:06.668Z,98.30
2022-11-27T05:36:36.140Z,98.30
2022-11-27T05:39:06.700Z,98.30
2022-11-27T05:41:34.918Z,98.30
2022-11-27T05:44:01.652Z,98.30
2022-11-27T05:46:28.396Z,98.30
2022-11-27T05:48:55.063Z,98.30
2022-11-27T05:51:21.808Z,98.30
2022-11-27T05:53:48.496Z,98.30
2022-11-27T05:56:17.711Z,98.20
2022-11-27T05:58:47.583Z,98.30
2022-11-27T06:01:16.243Z,98.30
2022-11-27T06:03:42.933Z,98.30
2022-11-27T06:06:13.230Z,97.90
2022-11-27T06:08:40.941Z,97.80
2022-11-27T06:11:16.207Z,97.80
2022-11-27T06:13:43.170Z,97.90
2022-11-27T06:16:15.141Z,97.80
2022-11-27T06:18:42.021Z,97.90
2022-11-27T06:21:11.408Z,97.90
2022-11-27T06:23:38.586Z,97.60
2022-11-27T06:26:26.473Z,97.20
2022-11-27T06:28:54.868Z,97.50
2022-11-27T06:31:24.377Z,97.90
2022-11-27T06:33:52.311Z,98.30
2022-11-27T06:36:20.285Z,98.30
2022-11-27T06:38:47.209Z,98.30
2022-11-27T06:41:21.293Z,98.30
2022-11-27T06:43:48.208Z,98.30
2022-11-27T06:46:17.790Z,98.20
2022-11-27T06:48:46.522Z,98.30
2022-11-27T06:51:15.940Z,98.30
2022-11-27T06:53:43.348Z,98.30
2022-11-27T06:56:13.392Z,98.30
2022-11-27T06:58:40.618Z,98.30
2022-11-27T07:01:10.703Z,98.30
2022-11-27T07:03:37.456Z,98.30
2022-11-27T07:06:06.374Z,98.30
2022-11-27T07:08:34.118Z,98.30
2022-11-27T07:11:08.093Z,98.30
2022-11-27T07:13:35.040Z,98.30
2022-11-27T07:16:07.472Z,98.30
2022-11-27T07:18:40.587Z,98.30
2022-11-27T07:21:08.166Z,98.20
2022-11-27T07:23:35.802Z,97.70
2022-11-27T07:26:16.495Z,97.70
2022-11-27T07:28:44.140Z,97.30
2022-11-27T07:31:16.322Z,97.40
2022-11-27T07:33:43.471Z,97.10
2022-11-27T07:36:15.323Z,97.40
2022-11-27T07:38:43.831Z,98.00
2022-11-27T07:41:11.358Z,97.80
2022-11-27T07:43:38.633Z,97.40
2022-11-27T07:46:07.362Z,97.40
2022-11-27T07:48:34.027Z,97.60
2022-11-27T07:51:00.855Z,97.70
2022-11-27T07:53:27.659Z,97.60
2022-11-27T07:55:54.317Z,97.00
2022-11-27T07:58:20.999Z,97.10
2022-11-27T08:00:48.450Z,97.00
2022-11-27T08:03:16.496Z,97.30
2022-11-27T08:05:43.362Z,97.20
2022-11-27T08:08:10.013Z,97.20
2022-11-27T08:10:37.944Z,97.30
2022-11-27T08:13:05.459Z,97.00
2022-11-27T08:15:32.568Z,97.00
2022-11-27T08:17:59.471Z,97.10
2022-11-27T08:20:26.272Z,97.20
2022-11-27T08:22:55.883Z,97.50
2022-11-27T08:25:25.362Z,97.50
2022-11-27T08:27:52.144Z,97.90
2022-11-27T08:30:18.988Z,98.20
2022-11-27T08:32:45.886Z,97.80
2022-11-27T08:35:12.895Z,97.60
2022-11-27T08:37:39.874Z,97.50
2022-11-27T08:40:07.435Z,97.50
2022-11-27T08:42:34.139Z,97.60
2022-11-27T08:45:00.820Z,98.20
2022-11-27T08:47:27.530Z,98.00
2022-11-27T08:49:54.281Z,98.00
2022-11-27T08:52:21.736Z,97.50
2022-11-27T08:54:51.921Z,97.20
2022-11-27T08:57:21.183Z,96.80
2022-11-27T08:59:47.829Z,96.30
2022-11-27T09:02:14.504Z,96.30
2022-11-27T09:04:41.440Z,96.00
2022-11-27T09:07:08.532Z,96.10
2022-11-27T09:09:36.591Z,95.90
2022-11-27T09:12:03.438Z,95.20
2022-11-27T09:14:30.102Z,94.90
2022-11-27T09:16:56.828Z,94.70
2022-11-27T09:19:23.849Z,94.70
2022-11-27T09:21:50.954Z,94.90
2022-11-27T09:24:17.687Z,95.10
2022-11-27T09:26:44.830Z,95.70
2022-11-27T09:29:11.474Z,96.10
2022-11-27T09:31:38.195Z,96.20
2022-11-27T09:34:05.719Z,95.70
2022-11-27T09:36:32.485Z,96.10
2022-11-27T09:38:59.634Z,96.20
2022-11-27T09:41:49.039Z,96.00
2022-11-27T09:44:23.718Z,96.20
2022-11-27T09:46:51.689Z,96.30
2022-11-27T09:49:24.586Z,95.80
2022-11-27T09:52:07.773Z,95.70
2022-11-27T09:54:49.429Z,95.80
2022-11-27T09:57:25.388Z,95.30
2022-11-27T09:59:54.352Z,94.70
2022-11-27T10:02:29.414Z,94.60
2022-11-27T10:05:13.428Z,94.50
2022-11-27T10:08:04.704Z,86.50
2022-11-27T10:11:03.030Z,75.70
2022-11-27T10:13:36.530Z,68.30
2022-11-27T10:16:21.767Z,65.00
2022-11-27T10:18:54.226Z,61.10
2022-11-27T10:21:46.780Z,57.70
2022-11-27T10:24:22.811Z,56.60
2022-11-27T10:26:52.701Z,55.40
2022-11-27T10:29:39.460Z,56.30
2022-11-27T10:32:52.713Z,57.30
2022-11-27T10:35:15.995Z,57.00
2022-11-27T10:38:15.911Z,55.20
2022-11-27T10:41:09.843Z,54.70
2022-11-27T10:43:38.929Z,55.00
2022-11-27T10:46:10.565Z,57.10
2022-11-27T10:48:37.442Z,59.90
2022-11-27T10:51:10.279Z,62.10
2022-11-27T10:53:40.045Z,59.70
2022-11-27T10:56:06.805Z,60.60
2022-11-27T10:59:04.894Z,63.60
2022-11-27T11:01:55.470Z,66.00
2022-11-27T11:04:43.523Z,68.20
2022-11-27T11:07:28.032Z,70.40
2022-11-27T11:09:56.346Z,71.00
2022-11-27T11:12:23.889Z,70.70
2022-11-27T11:14:59.196Z,70.20
2022-11-27T11:17:34.671Z,66.60
2022-11-27T11:20:21.876Z,63.40
2022-11-27T11:22:49.199Z,62.10
2022-11-27T11:25:21.261Z,65.00
2022-11-27T11:27:50.354Z,67.00
2022-11-27T11:30:26.258Z,65.70
2022-11-27T11:33:00.649Z,60.90
2022-11-27T11:35:34.666Z,58.90
2022-11-27T11:38:04.871Z,56.70
2022-11-27T11:40:34.227Z,56.50
2022-11-27T11:43:09.848Z,55.70
2022-11-27T11:45:45.429Z,54.70
2022-11-27T11:48:26.325Z,54.70
2022-11-27T11:51:01.595Z,54.10
2022-11-27T11:53:40.066Z,52.80
2022-11-27T11:56:24.497Z,53.10
2022-11-27T11:58:54.283Z,54.10
2022-11-27T12:01:58.838Z,55.90
2022-11-27T12:04:50.569Z,55.80
2022-11-27T12:07:45.216Z,55.70
2022-11-27T12:10:27.961Z,57.20
2022-11-27T12:13:05.906Z,59.90
2022-11-27T12:15:43.673Z,60.30
2022-11-27T12:18:26.192Z,60.20
2022-11-27T12:21:15.951Z,60.30
2022-11-27T12:24:21.945Z,59.30
2022-11-27T12:27:13.120Z,59.30
2022-11-27T12:29:51.937Z,59.50
2022-11-27T12:32:24.585Z,61.30
2022-11-27T12:35:17.274Z,61.90
2022-11-27T12:38:12.971Z,63.20
2022-11-27T12:40:42.515Z,66.20
2022-11-27T12:43:27.560Z,67.50
2022-11-27T12:46:03.799Z,67.20
2022-11-27T12:48:47.343Z,67.10
2022-11-27T12:51:26.445Z,67.30
2022-11-27T12:54:03.807Z,68.30
2022-11-27T12:56:37.218Z,69.90
2022-11-27T12:59:28.339Z,71.80
2022-11-27T13:02:13.991Z,71.70
2022-11-27T13:04:53.054Z,72.10
2022-11-27T13:07:26.147Z,73.10
2022-11-27T13:10:26.493Z,73.80
2022-11-27T13:13:06.020Z,75.50
2022-11-27T13:16:11.162Z,75.30
2022-11-27T13:18:59.919Z,76.00
2022-11-27T13:21:30.868Z,76.50
2022-11-27T13:24:00.931Z,76.60
2022-11-27T13:26:36.500Z,77.40
2022-11-27T13:29:16.085Z,77.70
2022-11-27T13:31:44.374Z,78.20
2022-11-27T13:34:27.106Z,78.50
2022-11-27T13:37:02.954Z,79.40
2022-11-27T13:39:41.962Z,79.60
2022-11-27T13:42:11.515Z,79.60
2022-11-27T13:44:43.527Z,80.10
2022-11-27T13:47:19.792Z,80.60
2022-11-27T13:50:00.571Z,80.20
2022-11-27T13:52:27.473Z,80.70
2022-11-27T13:54:56.589Z,80.70
2022-11-27T13:57:24.421Z,81.10
2022-11-27T14:00:08.395Z,82.30
2022-11-27T14:02:48.562Z,82.10
2022-11-27T14:05:21.261Z,81.80
2022-11-27T14:07:50.951Z,82.10
2022-11-27T14:10:21.855Z,81.80
2022-11-27T14:13:09.809Z,82.70
2022-11-27T14:15:37.696Z,83.30
2022-11-27T14:18:10.248Z,83.70
2022-11-27T14:20:52.353Z,82.40
2022-11-27T14:23:47.944Z,83.20
2022-11-27T14:26:15.367Z,84.10
2022-11-27T14:28:45.212Z,83.90
2022-11-27T14:31:35.662Z,84.20
2022-11-27T14:34:23.159Z,84.50
2022-11-27T14:36:52.267Z,84.80
2022-11-27T14:39:28.878Z,84.90
2022-11-27T14:42:08.068Z,84.90
2022-11-27T14:44:35.293Z,85.00
2022-11-27T14:47:05.451Z,83.80
2022-11-27T14:49:33.563Z,84.90
2022-11-27T14:52:05.165Z,85.20
2022-11-27T14:54:35.260Z,85.60
2022-11-27T14:57:03.932Z,84.70
2022-11-27T14:59:30.987Z,85.10
2022-11-27T15:02:00.841Z,86.20
2022-11-27T15:04:39.317Z,86.60
2022-11-27T15:07:21.833Z,87.30
2022-11-27T15:09:51.179Z,87.50
2022-11-27T15:12:22.499Z,86.00
2022-11-27T15:15:04.180Z,85.90
2022-11-27T15:17:33.513Z,86.60
2022-11-27T15:20:02.378Z,86.60
2022-11-27T15:22:29.107Z,86.80
2022-11-27T15:25:01.164Z,87.50
2022-11-27T15:27:31.044Z,88.10
2022-11-27T15:30:11.115Z,88.50
2022-11-27T15:32:51.572Z,88.00
2022-11-27T15:35:36.194Z,87.20
2022-11-27T15:38:10.509Z,87.40
2022-11-27T15:40:39.668Z,88.20
2022-11-27T15:43:12.140Z,88.70
2022-11-27T15:45:39.987Z,88.80
2022-11-27T15:48:15.531Z,89.10
2022-11-27T15:50:45.538Z,89.40
2022-11-27T15:53:16.852Z,89.90
2022-11-27T15:55:43.533Z,90.30
2022-11-27T15:58:10.285Z,90.40
2022-11-27T16:00:37.159Z,90.70
2022-11-27T16:03:03.970Z,91.00
2022-11-27T16:05:31.022Z,91.10
2022-11-27T16:07:58.065Z,91.00
2022-11-27T16:10:24.915Z,91.30
2022-11-27T16:12:54.838Z,91.30
2022-11-27T16:15:23.585Z,91.10
2022-11-27T16:17:51.616Z,91.10
2022-11-27T16:20:18.305Z,91.70
2022-11-27T16:22:45.039Z,91.70
2022-11-27T16:25:13.662Z,92.10
2022-11-27T16:27:40.405Z,91.70
2022-11-27T16:30:09.509Z,91.10
2022-11-27T16:32:40.008Z,91.50
2022-11-27T16:35:08.206Z,91.60
2022-11-27T16:37:35.131Z,91.50
2022-11-27T16:40:03.197Z,90.40
2022-11-27T16:42:30.218Z,90.10
2022-11-27T16:44:57.476Z,90.70
2022-11-27T16:47:30.520Z,90.50
2022-11-27T16:50:00.620Z,88.70
2022-11-27T16:52:28.036Z,88.10
2022-11-27T16:54:55.675Z,88.10
2022-11-27T16:57:23.196Z,87.50
2022-11-27T16:59:50.777Z,87.30
2022-11-27T17:02:18.777Z,87.30
2022-11-27T17:04:45.538Z,87.50
2022-11-27T17:07:12.325Z,87.20
2022-11-27T17:09:42.020Z,87.30
2022-11-27T17:12:08.705Z,87.30
2022-11-27T17:14:36.894Z,87.40
2022-11-27T17:17:05.660Z,88.00
2022-11-27T17:19:32.457Z,87.70
2022-11-27T17:21:59.889Z,87.70
2022-11-27T17:24:27.920Z,87.40
2022-11-27T17:26:55.980Z,87.40
2022-11-27T17:29:38.065Z,88.20
2022-11-27T17:32:08.569Z,88.30
2022-11-27T17:34:35.390Z,88.80
2022-11-27T17:37:02.932Z,88.30
2022-11-27T17:39:29.863Z,87.90
2022-11-27T17:41:56.630Z,88.10
2022-11-27T17:44:23.367Z,87.80
2022-11-27T17:46:50.715Z,87.50
2022-11-27T17:49:19.538Z,87.40
2022-11-27T17:51:46.870Z,87.40
2022-11-27T17:54:14.372Z,87.50
2022-11-27T17:56:41.182Z,88.10
2022-11-27T17:59:09.569Z,87.80
2022-11-27T18:01:36.891Z,87.70
2022-11-27T18:04:05.300Z,88.20
2022-11-27T18:06:32.759Z,88.10
2022-11-27T18:08:59.800Z,87.50
2022-11-27T18:11:29.089Z,87.50
2022-11-27T18:13:58.689Z,88.20
2022-11-27T18:16:30.675Z,88.50
2022-11-27T18:18:58.996Z,88.70
2022-11-27T18:21:30.262Z,88.10
2022-11-27T18:29:30.731Z,88.60
2022-11-27T18:31:57.468Z,89.30
2022-11-27T18:34:24.346Z,89.50
2022-11-27T18:36:51.170Z,88.80
2022-11-27T18:39:18.096Z,89.20
2022-11-27T18:41:44.770Z,89.30
2022-11-27T18:44:11.859Z,89.80
2022-11-27T18:46:38.565Z,89.70
2022-11-27T18:49:05.987Z,89.40
2022-11-27T18:51:33.182Z,88.20
2022-11-27T18:53:59.881Z,88.20
2022-11-27T18:56:29.521Z,88.30
2022-11-27T18:59:03.066Z,88.50
2022-11-27T19:01:36.754Z,88.70
2022-11-27T19:04:07.065Z,88.20
2022-11-27T19:06:36.039Z,87.60
2022-11-27T19:09:02.936Z,87.80
2022-11-27T19:11:30.808Z,88.00
2022-11-27T19:13:59.328Z,88.50
2022-11-27T19:16:41.671Z,88.00
2022-11-27T19:19:15.072Z,88.20
2022-11-27T19:21:56.109Z,88.50
2022-11-27T19:24:22.903Z,88.50
2022-11-27T19:26:53.398Z,88.40
2022-11-27T19:29:20.072Z,87.90
2022-11-27T19:31:47.516Z,87.70
2022-11-27T19:34:14.839Z,88.30
2022-11-27T19:36:41.567Z,88.80
2022-11-27T19:39:13.899Z,88.50
2022-11-27T19:41:41.474Z,88.20
2022-11-27T19:44:08.295Z,88.20
2022-11-27T19:46:37.487Z,88.60
2022-11-27T19:49:07.070Z,88.80
2022-11-27T19:51:36.089Z,89.30
2022-11-27T19:54:10.313Z,89.00
2022-11-27T19:56:40.094Z,88.40
2022-11-27T19:59:07.787Z,88.60
2022-11-27T20:01:35.734Z,88.90
2022-11-27T20:04:03.932Z,89.10
2022-11-27T20:06:31.266Z,89.40
2022-11-27T20:09:04.140Z,89.10
2022-11-27T20:11:34.910Z,89.00
2022-11-27T20:14:04.843Z,88.40
2022-11-27T20:16:33.603Z,88.00
2022-11-27T20:19:05.197Z,88.20
2022-11-27T20:21:34.067Z,88.00
2022-11-27T20:24:02.088Z,88.10
2022-11-27T20:26:30.509Z,88.50
2022-11-27T20:28:58.913Z,88.70
2022-11-27T20:31:31.743Z,88.10
2022-11-27T20:34:01.715Z,87.70
2022-11-27T20:36:31.028Z,88.20
2022-11-27T20:38:59.874Z,88.20
2022-11-27T20:41:27.777Z,88.60
2022-11-27T20:44:01.131Z,88.00
2022-11-27T20:46:29.843Z,88.00
2022-11-27T20:48:58.021Z,88.00
2022-11-27T20:51:28.670Z,88.20
2022-11-27T20:53:57.508Z,88.10
2022-11-27T20:56:24.767Z,87.90
2022-11-27T20:58:51.606Z,88.10
2022-11-27T21:01:30.105Z,88.30
2022-11-27T21:03:59.344Z,88.40
2022-11-27T21:06:30.929Z,88.10
2022-11-27T21:09:00.976Z,88.30
2022-11-27T21:11:31.582Z,88.20
2022-11-27T21:14:01.367Z,88.60
2022-11-27T21:16:30.608Z,88.20
2022-11-27T21:18:59.782Z,88.60
2022-11-27T21:21:27.511Z,88.20
2022-11-27T21:23:55.142Z,88.50
2022-11-27T21:26:23.102Z,88.50
2022-11-27T21:28:50.362Z,88.10
2022-11-27T21:31:22.099Z,88.30
2022-11-27T21:33:54.547Z,88.90
2022-11-27T21:36:25.326Z,89.20
2022-11-27T21:38:53.131Z,88.80
2022-11-27T21:41:20.315Z,88.60
2022-11-27T21:43:49.213Z,89.20
2022-11-27T21:46:18.736Z,88.80
2022-11-27T21:48:47.109Z,88.80
2022-11-27T21:51:15.212Z,88.60
2022-11-27T21:53:43.531Z,88.80
2022-11-27T21:56:12.939Z,89.00
2022-11-27T21:58:40.024Z,89.60
2022-11-27T22:01:12.556Z,89.40
2022-11-27T22:03:42.805Z,89.10
2022-11-27T22:06:15.018Z,88.50
2022-11-27T22:08:44.258Z,88.80
2022-11-27T22:11:16.785Z,89.40
2022-11-27T22:13:43.670Z,89.30
2022-11-27T22:16:16.767Z,89.50
2022-11-27T22:18:43.743Z,89.90
2022-11-27T22:21:12.519Z,90.20
2022-11-27T22:23:39.958Z,90.40
2022-11-27T22:26:15.658Z,91.10
2022-11-27T22:28:42.646Z,90.80
2022-11-27T22:31:11.463Z,90.70
2022-11-27T22:33:41.123Z,91.40
2022-11-27T22:36:15.965Z,91.80
2022-11-27T22:38:44.568Z,91.20
2022-11-27T22:41:12.206Z,90.80
2022-11-27T22:43:39.601Z,89.90
2022-11-27T22:46:12.639Z,89.90
2022-11-27T22:48:39.839Z,89.90
2022-11-27T22:51:07.899Z,89.70
2022-11-27T22:53:34.891Z,89.30
2022-11-27T22:56:08.972Z,89.60
2022-11-27T22:58:41.195Z,89.70
2022-11-27T23:01:13.922Z,90.00
2022-11-27T23:03:40.723Z,90.50
2022-11-27T23:06:11.834Z,91.10
2022-11-27T23:08:43.375Z,90.30
2022-11-27T23:11:13.110Z,90.10
2022-11-27T23:13:42.778Z,90.10
2022-11-27T23:16:12.522Z,90.80
2022-11-27T23:18:39.681Z,91.30
2022-11-27T23:21:08.530Z,90.80
2022-11-27T23:23:35.608Z,90.80
2022-11-27T23:26:07.016Z,90.60
2022-11-27T23:28:34.155Z,90.80
2022-11-27T23:31:28.963Z,90.90
2022-11-27T23:33:56.733Z,91.20
2022-11-27T23:36:23.451Z,90.80
2022-11-27T23:38:50.372Z,90.80
2022-11-27T23:41:20.674Z,90.20
2022-11-27T23:43:48.229Z,90.20
2022-11-27T23:46:17.590Z,90.20
2022-11-27T23:48:44.923Z,91.10
2022-11-27T23:51:17.457Z,91.00
2022-11-27T23:53:44.681Z,90.70
2022-11-27T23:56:23.782Z,90.70
2022-11-27T23:58:50.776Z,90.30
